Latest Weather Observations for Mandora

IDW60801

Issued at 9:02 pm WST Sunday 29 May 2016 (issued every 30 minutes, with the page automatically refreshed every 10 minutes)

About weather observations | Map of weather stations | Latest weather observations for WA | Other Formats
Station Details ID: 004019 Name: MANDORA Lat: -19.74 Lon: 120.84 Height: 7.5 m
Data from the previous 72 hours. | See also: Recent months at Mandora
Date/Time
WST
Temp
°C
App
Temp
°C
Dew
Point
Rel
Hum
%
Delta-T
°C
Wind Press
QNH
hPa
Press
MSL
hPa
Rain
since 9 am
mm
Dir
 
Spd
km/h
Gust
km/h
Spd
kts
Gust
kts
29/09:00pm 20.4 23.7 19.1 92 0.8 CALM 0 0 0 0 1013.4 1013.3 0.0
29/08:30pm 20.7 24.0 19.2 91 0.9 CALM 0 0 0 0 1013.2 1013.1 0.0
29/08:00pm 21.0 24.4 19.3 90 1.1 CALM 0 0 0 0 1013.2 1013.1 0.0
29/07:30pm 21.9 25.6 20.0 89 1.2 CALM 0 0 0 0 1013.0 1012.9 0.0
29/07:00pm 22.4 26.3 20.3 88 1.4 CALM 0 0 0 0 1013.0 1012.9 0.0
29/06:30pm 23.7 28.2 21.6 88 1.4 CALM 0 0 0 0 1012.9 1012.8 0.0
29/06:00pm 24.3 27.7 21.6 85 1.8 WNW 6 7 3 4 1012.7 1012.6 0.0
29/05:30pm 25.0 28.3 21.9 83 2.1 NW 7 9 4 5 1012.4 1012.3 0.0
29/05:00pm 26.0 29.2 22.3 80 2.5 NW 9 15 5 8 1012.2 1012.1 0.0
29/04:30pm 27.1 29.8 22.1 74 3.4 NW 11 19 6 10 1011.7 1011.6 0.0
29/04:00pm 27.7 30.0 22.0 71 3.8 NW 13 20 7 11 1011.3 1011.2 0.0
29/03:30pm 28.1 30.0 21.4 67 4.5 NW 13 17 7 9 1011.1 1011.0 0.0
29/03:00pm 28.8 30.7 21.3 64 5.0 NW 13 20 7 11 1011.1 1011.0 0.0
29/02:30pm 28.9 31.3 22.2 67 4.5 NW 13 20 7 11 1011.1 1011.0 0.0
29/02:00pm 28.8 31.0 21.8 66 4.7 NNW 13 19 7 10 1011.3 1011.2 0.0
29/01:30pm 28.5 30.1 20.8 63 5.1 NNW 13 22 7 12 1011.5 1011.4 0.0
29/01:00pm 29.2 31.7 21.7 64 5.0 NNW 11 20 6 11 1012.1 1012.0 0.0
29/12:30pm 29.1 31.0 21.3 62 5.2 NNW 13 20 7 11 1012.6 1012.5 0.0
29/12:00pm 29.4 30.5 19.7 56 6.3 NNW 13 20 7 11 1013.0 1012.9 0.0
29/11:30am 30.9 31.4 18.3 47 8.1 NW 13 19 7 10 1013.1 1013.0 0.0
29/11:00am 30.0 31.5 19.7 54 6.7 NW 11 19 6 10 1013.5 1013.4 0.0
29/10:30am 29.8 31.4 19.2 53 6.9 W 9 13 5 7 1014.0 1013.9 0.0
29/10:00am 28.7 30.0 19.3 56 6.1 WSW 11 15 6 8 1014.1 1014.0 0.0
29/09:30am 28.2 29.7 20.5 63 5.1 WSW 13 20 7 11 1014.2 1014.1 0.0
29/09:00am 26.8 28.5 21.6 73 3.5 SSW 15 22 8 12 1014.2 1014.1 0.0
29/08:30am 25.1 27.4 22.0 83 2.1 SSW 13 17 7 9 1014.1 1014.0 0.0
29/08:00am 23.7 25.6 22.1 91 1.1 SSW 15 19 8 10 1013.7 1013.6 0.0
29/07:30am 22.3 24.6 22.0 98 0.2 SSW 13 17 7 9 1013.7 1013.6 0.0
29/07:00am 21.5 23.8 21.3 99 0.1 SSW 11 15 6 8 1013.4 1013.3 0.0
29/06:30am 21.4 23.2 21.1 98 0.2 SSW 13 17 7 9 1013.2 1013.1 0.0
29/06:00am 21.4 23.6 21.1 98 0.2 SSW 11 15 6 8 1012.6 1012.5 0.0
29/05:30am 21.6 24.3 21.3 98 0.2 SW 9 15 5 8 1012.4 1012.3 0.0
29/05:00am 21.8 24.2 21.5 98 0.2 SW 11 13 6 7 1012.1 1012.0 0.0
29/04:30am 21.9 24.2 21.4 97 0.3 SW 11 15 6 8 1011.9 1011.8 0.0
29/04:00am 21.8 24.1 21.3 97 0.3 SW 11 15 6 8 1011.9 1011.8 0.0
29/03:30am 21.7 23.8 21.0 96 0.5 SW 11 13 6 7 1011.9 1011.8 0.0
29/03:00am 21.7 23.4 20.9 95 0.5 SW 13 15 7 8 1011.9 1011.8 0.0
29/02:30am 21.9 23.7 21.1 95 0.5 SW 13 17 7 9 1012.1 1012.0 0.0
29/02:00am 21.4 23.2 20.4 94 0.6 SW 11 15 6 8 1012.2 1012.1 0.0
29/01:30am 21.3 23.4 20.1 93 0.8 SW 9 13 5 7 1012.2 1012.1 0.0
29/01:00am 21.6 23.8 20.4 93 0.8 SW 9 13 5 7 1012.3 1012.2 0.0
29/12:30am 21.7 23.9 20.5 93 0.8 SW 9 11 5 6 1012.6 1012.5 0.0
29/12:00am 21.4 23.7 20.6 95 0.5 SW 9 11 5 6 1012.8 1012.7 0.0
 
Date/Time
WST
Temp
°C
App
Temp
°C
Dew
Point
Rel
Hum
%
Delta-T
°C
Wind Press
QNH
hPa
Press
MSL
hPa
Rain
since 9 am
mm
Dir
 
Spd
km/h
Gust
km/h
Spd
kts
Gust
kts
28/11:30pm 21.5 23.7 20.5 94 0.6 SW 9 11 5 6 1013.0 1012.9 0.0
28/11:00pm 21.5 23.7 20.3 93 0.8 SW 9 11 5 6 1013.1 1013.0 0.0
28/10:30pm 21.9 24.2 20.7 93 0.8 SW 9 13 5 7 1013.3 1013.2 0.0
28/10:00pm 21.2 23.1 19.8 92 0.9 WSW 9 11 5 6 1013.3 1013.2 0.0
28/09:30pm 21.5 23.9 20.1 92 0.9 WSW 7 9 4 5 1013.3 1013.2 0.0
28/09:00pm 21.4 23.4 19.9 91 1.0 WSW 9 9 5 5 1013.3 1013.2 0.0
28/08:30pm 21.3 23.1 19.6 90 1.1 WSW 9 9 5 5 1013.3 1013.2 0.0
28/08:00pm 21.8 24.1 19.9 89 1.2 WSW 7 9 4 5 1013.2 1013.1 0.0
28/07:30pm 22.3 24.7 20.0 87 1.5 W 7 9 4 5 1013.0 1012.9 0.0
28/07:00pm 22.5 24.8 19.9 85 1.7 W 7 9 4 5 1012.8 1012.7 0.0
28/06:30pm 23.2 25.8 20.0 82 2.1 WNW 6 7 3 4 1012.5 1012.4 0.0
28/06:00pm 23.7 26.0 19.4 77 2.8 NW 6 7 3 4 1012.1 1012.0 0.0
28/05:30pm 25.0 27.3 19.8 73 3.4 NW 7 11 4 6 1011.9 1011.8 0.0
28/05:00pm 26.5 28.3 19.6 66 4.5 NW 9 13 5 7 1011.7 1011.6 0.0
28/04:30pm 27.5 28.7 19.0 59 5.5 NW 11 17 6 9 1011.7 1011.6 0.0
28/04:00pm 28.3 29.2 18.4 55 6.3 NNW 11 17 6 9 1011.7 1011.6 0.0
28/03:30pm 29.2 29.5 18.0 51 7.1 NNW 13 19 7 10 1011.4 1011.3 0.0
28/03:00pm 29.2 29.0 16.7 46 7.8 NNW 13 20 7 11 1011.5 1011.4 0.0
28/02:30pm 29.6 29.2 16.1 44 8.4 NNW 13 20 7 11 1011.4 1011.3 0.0
28/02:00pm 29.9 28.7 16.0 43 8.6 NNW 17 20 9 11 1011.5 1011.4 0.0
28/01:30pm 29.8 28.1 13.5 36 9.7 N 15 22 8 12 1011.9 1011.8 0.0
28/01:00pm 29.9 28.3 12.8 35 10.1 N 13 20 7 11 1012.3 1012.2 0.0
28/12:30pm 29.9 27.5 12.8 35 10.1 N 17 28 9 15 1012.7 1012.6 0.0
28/12:00pm 30.1 27.9 13.4 36 10.0 N 17 22 9 12 1013.4 1013.3 0.0
28/11:30am 30.2 28.2 12.6 34 10.4 N 15 22 8 12 1013.7 1013.6 0.0
28/11:00am 30.5 29.6 13.7 35 10.1 NE 11 19 6 10 1014.0 1013.9 0.0
28/10:30am 29.9 29.0 13.6 36 9.8 ENE 11 17 6 9 1014.6 1014.5 0.0
28/10:00am 29.0 27.8 12.8 36 9.5 ENE 11 17 6 9 1015.1 1015.0 0.0
28/09:30am 29.2 29.2 14.2 40 9.0 ENE 7 13 4 7 1015.4 1015.3 0.0
28/09:00am 27.8 27.5 14.4 43 8.0 E 9 13 5 7 1015.7 1015.6 0.0
28/08:30am 25.6 25.0 14.7 51 6.5 ESE 11 15 6 8 1015.8 1015.7 0.0
28/08:00am 24.0 23.3 14.4 55 5.7 ESE 11 19 6 10 1015.4 1015.3 0.0
28/07:30am 22.1 20.9 14.0 60 4.7 SE 13 17 7 9 1015.2 1015.1 0.0
28/07:00am 20.1 19.2 13.6 66 3.7 SE 11 13 6 7 1015.1 1015.0 0.0
28/06:30am 19.5 18.9 13.4 68 3.5 SE 9 13 5 7 1014.9 1014.8 0.0
28/06:00am 19.2 18.6 13.6 70 3.2 SE 9 11 5 6 1014.6 1014.5 0.0
28/05:30am 19.0 18.9 13.8 72 3.0 SE 7 11 4 6 1014.3 1014.2 0.0
28/05:00am 19.5 19.5 14.1 71 3.1 SE 7 11 4 6 1014.3 1014.2 0.0
28/04:30am 20.1 19.7 14.2 69 3.4 SSE 9 13 5 7 1014.4 1014.3 0.0
28/04:00am 20.3 20.1 14.7 70 3.3 SSE 9 13 5 7 1014.2 1014.1 0.0
28/03:30am 19.9 20.3 15.3 75 2.7 SSE 7 9 4 5 1014.2 1014.1 0.0
28/03:00am 19.5 21.0 15.6 78 2.3 S 2 6 1 3 1014.1 1014.0 0.0
28/02:30am 20.9 21.6 16.1 74 2.9 SE 7 11 4 6 1014.3 1014.2 0.0
28/02:00am 21.2 21.8 16.8 76 2.7 SE 9 11 5 6 1014.5 1014.4 0.0
28/01:30am 21.4 22.6 18.2 82 2.0 S 9 11 5 6 1014.7 1014.6 0.0
28/01:00am 21.3 22.6 18.5 84 1.8 S 9 13 5 7 1014.9 1014.8 0.0
28/12:30am 21.6 23.1 18.8 84 1.8 S 9 13 5 7 1015.0 1014.9 0.0
28/12:00am 22.1 23.5 19.5 85 1.7 S 11 15 6 8 1015.1 1015.0 0.0
 
Date/Time
WST
Temp
°C
App
Temp
°C
Dew
Point
Rel
Hum
%
Delta-T
°C
Wind Press
QNH
hPa
Press
MSL
hPa
Rain
since 9 am
mm
Dir
 
Spd
km/h
Gust
km/h
Spd
kts
Gust
kts
27/11:30pm 21.8 23.8 19.9 89 1.2 S 9 13 5 7 1015.0 1014.9 0.0
27/11:00pm 21.8 23.9 20.1 90 1.1 S 9 15 5 8 1015.0 1014.9 0.0
27/10:30pm 21.9 23.9 20.0 89 1.2 SSW 9 11 5 6 1015.0 1014.9 0.0
27/10:00pm 22.0 23.7 20.1 89 1.2 SSW 11 11 6 6 1015.1 1015.0 0.0
27/09:30pm 22.5 24.9 20.8 90 1.1 S 9 11 5 6 1015.0 1014.9 0.0
27/09:00pm 22.2 24.1 20.5 90 1.1 SSW 11 11 6 6 1014.9 1014.8 0.0
27/08:30pm 22.4 24.6 20.5 89 1.2 SSW 9 11 5 6 1014.8 1014.7 0.0
27/08:00pm 22.8 25.3 21.1 90 1.1 SSW 9 13 5 7 1014.7 1014.6 0.0
27/07:30pm 22.9 25.3 20.8 88 1.4 WSW 9 9 5 5 1014.3 1014.2 0.0
27/07:00pm 23.2 25.9 20.7 86 1.6 W 7 9 4 5 1014.1 1014.0 0.0
27/06:30pm 23.8 26.2 20.9 84 1.9 W 9 9 5 5 1013.8 1013.7 0.0
27/06:00pm 24.6 27.4 20.9 80 2.4 W 7 9 4 5 1013.7 1013.6 0.0
27/05:30pm 25.6 28.1 21.1 76 3.0 NW 9 13 5 7 1013.4 1013.3 0.0
27/05:00pm 26.9 28.5 20.7 69 4.1 NNW 13 20 7 11 1013.1 1013.0 0.0
27/04:30pm 28.3 29.1 19.8 60 5.5 NNW 15 20 8 11 1012.8 1012.7 0.0
27/04:00pm 29.2 29.5 18.0 51 7.1 NNW 13 20 7 11 1012.7 1012.6 0.0
27/03:30pm 30.1 29.6 17.9 48 7.8 NNW 17 20 9 11 1012.6 1012.5 0.0
27/03:00pm 31.0 30.5 17.7 45 8.5 N 17 20 9 11 1012.5 1012.4 0.0
27/02:30pm 31.7 31.7 17.2 42 9.2 N 13 19 7 10 1012.6 1012.5 0.0
27/02:00pm 32.0 31.9 17.9 43 9.1 N 15 20 8 11 1012.8 1012.7 0.0
27/01:30pm 32.7 32.9 15.7 36 10.6 NNE 9 15 5 8 1013.2 1013.1 0.0
27/01:00pm 32.9 32.3 13.5 30 11.7 NE 9 17 5 9 1013.6 1013.5 0.0
27/12:30pm 32.9 32.5 14.0 32 11.5 NE 9 17 5 9 1014.1 1014.0 0.0
27/12:00pm 32.4 32.2 13.6 32 11.4 E 7 15 4 8 1014.5 1014.4 0.0
27/11:30am 32.2 31.8 15.2 35 10.5 E 11 19 6 10 1014.9 1014.8 0.0
27/11:00am 31.4 31.0 16.2 40 9.5 ENE 13 22 7 12 1015.4 1015.3 0.0
27/10:30am 30.9 30.5 16.1 41 9.2 ENE 13 24 7 13 1015.9 1015.8 0.0
27/10:00am 30.5 30.4 16.9 44 8.6 E 13 24 7 13 1016.0 1015.9 0.0
27/09:30am 29.0 28.5 16.9 48 7.6 E 15 22 8 12 1016.2 1016.1 0.0
27/09:00am 26.5 25.7 17.0 56 5.9 ESE 17 28 9 15 1016.1 1016.0 0.0
27/08:30am 24.1 24.7 18.5 71 3.5 SE 13 22 7 12 1016.3 1016.2 0.0
27/08:00am 21.1 23.6 21.1 100 0.0 SSE 9 15 5 8 1016.1 1016.0 0.0
27/07:30am 19.9 22.4 19.9 100 0.0 S 6 6 3 3 1015.9 1015.8 0.0
27/07:00am 17.8 19.2 17.8 100 0.0 S 7 7 4 4 1015.7 1015.6 0.0
27/06:30am 16.3 17.2 16.1 99 0.1 ESE 6 7 3 4 1015.4 1015.3 0.0
27/06:00am 16.2 17.0 15.9 98 0.2 ENE 6 9 3 5 1015.0 1014.9 0.0
27/05:30am 16.3 17.2 16.0 98 0.2 SE 6 7 3 4 1014.6 1014.5 0.0
27/05:00am 16.9 19.1 16.6 98 0.2 CALM 0 4 0 2 1014.5 1014.4 0.0
27/04:30am 18.2 20.2 17.9 98 0.2 E 4 6 2 3 1014.4 1014.3 0.0
27/04:00am 19.0 20.8 18.7 98 0.2 SE 7 9 4 5 1014.4 1014.3 0.0
27/03:30am 19.8 22.0 19.5 98 0.2 SE 7 9 4 5 1014.5 1014.4 0.0
27/03:00am 20.1 22.4 19.8 98 0.2 S 7 9 4 5 1014.5 1014.4 0.0
27/02:30am 20.1 21.6 19.8 98 0.2 SSW 11 11 6 6 1014.6 1014.5 0.0
27/02:00am 20.1 21.9 19.6 97 0.3 SSW 9 9 5 5 1014.5 1014.4 0.0
27/01:30am 19.6 21.5 18.9 96 0.4 SSW 7 9 4 5 1014.6 1014.5 0.0
27/01:00am 18.3 19.6 17.5 95 0.5 S 7 9 4 5 1014.6 1014.5 0.0
27/12:30am 17.6 19.9 16.8 95 0.5 CALM 0 0 0 0 1014.8 1014.7 0.0
27/12:00am 17.9 20.3 16.9 94 0.6 CALM 0 0 0 0 1015.2 1015.1 0.0
 
Date/Time
WST
Temp
°C
App
Temp
°C
Dew
Point
Rel
Hum
%
Delta-T
°C
Wind Press
QNH
hPa
Press
MSL
hPa
Rain
since 9 am
mm
Dir
 
Spd
km/h
Gust
km/h
Spd
kts
Gust
kts
26/11:30pm 18.4 21.0 17.4 94 0.6 CALM 0 0 0 0 1015.1 1015.0 0.0
26/11:00pm 18.8 21.5 17.8 94 0.6 CALM 0 0 0 0 1015.1 1015.0 0.0
26/10:30pm 19.5 22.5 18.5 94 0.6 CALM 0 0 0 0 1015.0 1014.9 0.0
26/10:00pm 21.2 24.0 20.4 95 0.5 SW 6 7 3 4 1015.0 1014.9 0.0
26/09:30pm 21.5 24.2 20.7 95 0.5 SW 7 9 4 5 1015.2 1015.1 0.0

Other Formats:

Comma delimited format used in spreadsheet applications
http://www.bom.gov.au/fwo/IDW60801/IDW60801.94200.axf

JavaScript Object Notation format (JSON) in row-major order
http://www.bom.gov.au/fwo/IDW60801/IDW60801.94200.json